Time;durP1;ratioP1;P1;durP2;ratioP2;P2;SDS_P1;SDS_P2;PMS_P1;PMS_P2;Temp;Humidity;BMP_temperature;BMP_pressure;BME280_temperature;BME280_humidity;BME280_pressure;Samples;Min_cycle;Max_cycle;Signal;HPM_P1;HPM_P2
2023/05/20 00:00:48;;;;;;;10.75;6.65;;;17.40;90.80;;;;;;5051859;28;20115;-71
2023/05/20 00:03:14;;;;;;;11.00;5.90;;;17.40;90.80;;;;;;5052243;28;20059;-68
2023/05/20 00:05:40;;;;;;;13.35;6.68;;;17.30;90.70;;;;;;5053487;28;20013;-70
2023/05/20 00:08:08;;;;;;;12.73;6.18;;;17.30;90.70;;;;;;5053447;28;20021;-70
2023/05/20 00:10:34;;;;;;;13.48;6.25;;;17.40;90.60;;;;;;5053508;28;20028;-70
2023/05/20 00:13:00;;;;;;;13.30;6.25;;;17.40;90.60;;;;;;5053333;28;20028;-70
2023/05/20 00:15:25;;;;;;;11.00;5.25;;;17.30;90.50;;;;;;5053443;28;20374;-70
2023/05/20 00:17:51;;;;;;;13.48;5.63;;;17.30;90.40;;;;;;5052688;28;20097;-69
2023/05/20 00:20:17;;;;;;;8.95;4.95;;;17.40;90.30;;;;;;5050785;28;20020;-68
2023/05/20 00:22:42;;;;;;;10.20;5.28;;;17.30;90.30;;;;;;5043577;28;20041;-72
2023/05/20 00:25:08;;;;;;;8.15;4.97;;;17.20;90.20;;;;;;5038713;28;20464;-72
2023/05/20 00:27:34;;;;;;;10.82;4.25;;;17.30;90.10;;;;;;5042822;28;20094;-67
2023/05/20 00:30:00;;;;;;;11.35;4.20;;;17.30;89.80;;;;;;5033364;28;20025;-69
2023/05/20 00:32:25;;;;;;;10.10;4.22;;;17.40;88.80;;;;;;5039190;28;20029;-68
2023/05/20 00:34:58;;;;;;;7.57;4.07;;;17.30;88.40;;;;;;5040238;28;20033;-67
2023/05/20 00:37:24;;;;;;;12.88;4.35;;;17.40;88.10;;;;;;5047569;28;20110;-70
2023/05/20 00:39:50;;;;;;;9.02;3.47;;;17.30;87.50;;;;;;5041958;28;20060;-71
2023/05/20 00:42:26;;;;;;;8.60;4.40;;;17.40;87.10;;;;;;5040077;28;20029;-68
2023/05/20 00:44:52;;;;;;;15.13;4.40;;;17.20;87.10;;;;;;5032778;28;20529;-72
2023/05/20 00:47:22;;;;;;;6.30;3.33;;;17.20;87.10;;;;;;5042362;28;20122;-70
2023/05/20 00:49:50;;;;;;;6.40;3.65;;;17.20;87.00;;;;;;5028141;28;20029;-71
2023/05/20 00:52:17;;;;;;;6.70;3.15;;;17.20;87.00;;;;;;5044281;28;20029;-71
2023/05/20 00:54:42;;;;;;;6.30;3.60;;;17.20;86.80;;;;;;5031354;28;20022;-69
2023/05/20 00:57:08;;;;;;;6.60;3.60;;;17.20;86.70;;;;;;5044784;28;20032;-67
2023/05/20 00:59:37;;;;;;;7.57;3.60;;;17.20;86.80;;;;;;5052898;28;20087;-70
2023/05/20 01:02:03;;;;;;;6.70;3.50;;;17.10;86.70;;;;;;5053121;28;20029;-70
2023/05/20 01:04:30;;;;;;;7.85;3.08;;;17.10;86.90;;;;;;5052469;28;20048;-67
2023/05/20 01:06:56;;;;;;;8.20;3.10;;;17.10;86.90;;;;;;5052794;28;20068;-70
2023/05/20 01:09:23;;;;;;;8.75;3.75;;;17.10;86.90;;;;;;5052776;28;20024;-73
2023/05/20 01:12:19;;;;;;;9.10;3.42;;;17.10;86.90;;;;;;5038633;28;20079;-70
2023/05/20 01:15:11;;;;;;;7.63;3.08;;;17.10;86.70;;;;;;5031539;28;20034;-70
2023/05/20 01:17:43;;;;;;;8.88;3.42;;;17.10;86.60;;;;;;5032425;28;20033;-71
2023/05/20 01:20:10;;;;;;;10.48;3.58;;;17.10;87.10;;;;;;5032680;28;20031;-73
2023/05/20 01:22:54;;;;;;;6.22;3.33;;;17.00;86.40;;;;;;5033035;28;20414;-68
2023/05/20 01:25:20;;;;;;;6.60;3.33;;;17.00;86.60;;;;;;5032595;28;20517;-69
2023/05/20 01:27:47;;;;;;;8.05;3.75;;;16.90;86.70;;;;;;5032579;28;20033;-68
2023/05/20 01:30:14;;;;;;;8.02;2.88;;;17.00;86.50;;;;;;5031354;28;20028;-70
2023/05/20 01:32:49;;;;;;;11.15;3.42;;;17.00;86.30;;;;;;5032553;28;20053;-69
2023/05/20 01:35:15;;;;;;;7.93;3.38;;;16.90;86.30;;;;;;5032685;28;20112;-67
2023/05/20 01:37:42;;;;;;;6.03;3.28;;;16.90;86.30;;;;;;5032848;28;20025;-67
2023/05/20 01:40:09;;;;;;;6.43;3.17;;;16.90;86.10;;;;;;5032919;28;20033;-68
2023/05/20 01:42:36;;;;;;;6.82;2.97;;;16.90;86.00;;;;;;5033309;28;20046;-68
2023/05/20 01:45:02;;;;;;;8.95;3.22;;;16.80;86.30;;;;;;5036492;28;20025;-70
2023/05/20 01:47:28;;;;;;;5.30;3.13;;;16.80;86.30;;;;;;5036030;28;20034;-69
2023/05/20 01:49:53;;;;;;;12.40;3.85;;;16.90;86.20;;;;;;5036451;28;20025;-69
2023/05/20 01:52:20;;;;;;;9.10;3.67;;;16.90;86.10;;;;;;5036336;28;20029;-71
2023/05/20 01:54:49;;;;;;;8.15;3.72;;;16.80;86.40;;;;;;5036333;28;20045;-73
2023/05/20 01:57:19;;;;;;;9.30;3.33;;;16.80;86.20;;;;;;5036127;28;20040;-74
2023/05/20 01:59:46;;;;;;;8.05;3.40;;;16.80;86.30;;;;;;5036248;28;20044;-70
2023/05/20 02:02:12;;;;;;;9.00;3.30;;;16.70;86.20;;;;;;5035941;28;20113;-68
2023/05/20 02:04:38;;;;;;;6.85;3.13;;;16.70;86.40;;;;;;5036012;28;20017;-73
2023/05/20 02:07:03;;;;;;;6.55;3.70;;;16.80;86.40;;;;;;5035966;28;20052;-71
2023/05/20 02:09:29;;;;;;;7.55;3.20;;;16.70;86.30;;;;;;5036088;28;20018;-67
2023/05/20 02:11:55;;;;;;;5.20;3.00;;;16.70;86.60;;;;;;5036073;28;20387;-70
2023/05/20 02:14:20;;;;;;;7.88;3.10;;;16.70;86.70;;;;;;5035964;28;20120;-68
2023/05/20 02:16:46;;;;;;;11.15;3.83;;;16.70;86.50;;;;;;5035546;28;20495;-72
2023/05/20 02:19:12;;;;;;;9.75;3.38;;;16.60;86.70;;;;;;5035991;28;20033;-71
2023/05/20 02:21:39;;;;;;;6.88;3.63;;;16.60;86.80;;;;;;5035851;28;20036;-71
2023/05/20 02:24:05;;;;;;;9.00;3.40;;;16.50;87.20;;;;;;5035733;28;20108;-71
2023/05/20 02:26:31;;;;;;;9.13;3.38;;;16.40;87.50;;;;;;5035094;28;20041;-68
2023/05/20 02:28:56;;;;;;;8.40;3.97;;;16.50;87.30;;;;;;5035484;28;20044;-71
2023/05/20 02:31:22;;;;;;;7.38;3.75;;;16.40;87.40;;;;;;5035190;28;20025;-72
2023/05/20 02:33:47;;;;;;;7.72;3.70;;;16.50;87.50;;;;;;5035722;28;20022;-73
2023/05/20 02:36:13;;;;;;;8.10;3.40;;;16.40;87.70;;;;;;5035610;28;20029;-72
2023/05/20 02:38:39;;;;;;;7.60;3.80;;;16.40;87.70;;;;;;5035516;28;20083;-71
2023/05/20 02:41:05;;;;;;;5.93;3.38;;;16.50;87.50;;;;;;5035614;28;20029;-71
2023/05/20 02:43:32;;;;;;;10.05;3.70;;;16.30;87.70;;;;;;5034985;28;20033;-67
2023/05/20 02:45:57;;;;;;;9.07;3.75;;;16.20;88.20;;;;;;5035243;28;20072;-71
2023/05/20 02:48:23;;;;;;;8.50;3.75;;;16.20;88.40;;;;;;5035302;28;20402;-74
2023/05/20 02:50:49;;;;;;;8.50;3.83;;;16.30;88.10;;;;;;5035152;28;20028;-69
2023/05/20 02:53:14;;;;;;;11.57;3.63;;;16.30;88.10;;;;;;5034514;28;20029;-69
2023/05/20 02:55:40;;;;;;;6.65;3.10;;;16.20;88.30;;;;;;5033951;28;20028;-71
2023/05/20 02:58:06;;;;;;;7.13;3.42;;;16.20;88.40;;;;;;5035086;28;20033;-70
2023/05/20 03:00:34;;;;;;;7.20;3.70;;;16.10;88.80;;;;;;5034946;28;20037;-71
2023/05/20 03:02:59;;;;;;;8.90;3.60;;;16.20;88.70;;;;;;5035053;28;20100;-73
2023/05/20 03:05:26;;;;;;;7.75;3.97;;;16.30;88.50;;;;;;5034790;28;20053;-71
2023/05/20 03:07:51;;;;;;;9.32;3.75;;;16.10;88.70;;;;;;5034940;28;20037;-72
2023/05/20 03:10:17;;;;;;;9.05;3.80;;;16.10;88.70;;;;;;5034887;28;20092;-69
2023/05/20 03:12:43;;;;;;;9.85;4.05;;;16.10;88.90;;;;;;5034732;28;20410;-70
2023/05/20 03:15:08;;;;;;;8.30;4.03;;;16.10;89.20;;;;;;5034562;28;20021;-71
2023/05/20 03:17:34;;;;;;;8.55;3.55;;;16.00;89.20;;;;;;5034710;28;20075;-69
2023/05/20 03:20:00;;;;;;;8.00;3.17;;;16.00;89.20;;;;;;5035124;28;20032;-70
2023/05/20 03:22:26;;;;;;;7.80;3.72;;;15.90;89.40;;;;;;5035063;28;20084;-67
2023/05/20 03:24:51;;;;;;;10.45;3.70;;;16.00;89.30;;;;;;5034521;28;20391;-68
2023/05/20 03:27:17;;;;;;;10.02;3.50;;;15.90;89.60;;;;;;5034492;28;20100;-70
2023/05/20 03:29:43;;;;;;;6.50;3.80;;;15.90;90.20;;;;;;5033067;28;20463;-69
2023/05/20 03:32:09;;;;;;;8.80;3.90;;;15.90;90.00;;;;;;5034629;28;20088;-74
2023/05/20 03:34:34;;;;;;;11.73;4.38;;;15.90;89.90;;;;;;5033976;28;20076;-68
2023/05/20 03:37:00;;;;;;;8.82;4.00;;;15.90;89.70;;;;;;5034571;28;20453;-69
2023/05/20 03:39:25;;;;;;;8.80;3.78;;;15.90;89.80;;;;;;5034136;28;20109;-67
2023/05/20 03:41:51;;;;;;;8.60;3.97;;;15.80;90.00;;;;;;5034380;28;20037;-71
2023/05/20 03:44:18;;;;;;;9.07;4.03;;;15.80;90.20;;;;;;5033646;28;20018;-67
2023/05/20 03:46:44;;;;;;;8.07;4.32;;;15.80;90.10;;;;;;5034218;28;20625;-67
2023/05/20 03:49:10;;;;;;;7.85;3.80;;;15.70;90.20;;;;;;5034147;28;20021;-71
2023/05/20 03:51:35;;;;;;;7.45;3.97;;;15.80;90.10;;;;;;5034146;28;20387;-70
2023/05/20 03:54:01;;;;;;;6.63;3.97;;;15.80;90.10;;;;;;5033696;28;20056;-67
2023/05/20 03:56:27;;;;;;;9.85;4.57;;;15.70;90.20;;;;;;5034094;28;20493;-68
2023/05/20 03:58:52;;;;;;;8.73;4.10;;;15.70;90.30;;;;;;5033745;28;20036;-67
2023/05/20 04:01:18;;;;;;;8.50;3.67;;;15.70;90.30;;;;;;5033955;28;20483;-72
2023/05/20 04:03:43;;;;;;;7.85;4.32;;;15.70;90.30;;;;;;5033498;28;20021;-70
2023/05/20 04:06:09;;;;;;;9.38;4.50;;;15.70;90.30;;;;;;5033488;28;20025;-71
2023/05/20 04:08:35;;;;;;;8.43;3.67;;;15.70;90.40;;;;;;5033691;28;20040;-73
2023/05/20 04:11:04;;;;;;;10.68;4.05;;;15.60;90.40;;;;;;5033749;28;20017;-72
2023/05/20 04:13:30;;;;;;;10.73;4.63;;;15.70;90.50;;;;;;5032113;28;20459;-73
2023/05/20 04:15:56;;;;;;;6.65;3.95;;;15.70;90.40;;;;;;5033762;28;20060;-70
2023/05/20 04:18:21;;;;;;;8.32;4.43;;;15.70;90.70;;;;;;5033325;28;20065;-69
2023/05/20 04:20:47;;;;;;;13.43;4.75;;;15.70;90.40;;;;;;5033718;28;20029;-72
2023/05/20 04:23:12;;;;;;;9.98;4.28;;;15.60;90.50;;;;;;5033533;28;20383;-70
2023/05/20 04:25:40;;;;;;;8.80;3.97;;;15.60;90.50;;;;;;5033421;28;20032;-69
2023/05/20 04:28:05;;;;;;;9.30;4.00;;;15.70;90.50;;;;;;5033147;28;20029;-73
2023/05/20 04:30:32;;;;;;;7.63;3.95;;;15.50;90.60;;;;;;5033424;28;20120;-70
2023/05/20 04:33:01;;;;;;;8.48;4.07;;;15.60;90.70;;;;;;5033721;28;20017;-69
2023/05/20 04:35:27;;;;;;;7.53;4.28;;;15.50;90.80;;;;;;5033129;28;20115;-71
2023/05/20 04:37:54;;;;;;;8.13;4.53;;;15.60;90.90;;;;;;5033730;28;20458;-69
2023/05/20 04:40:20;;;;;;;11.43;4.30;;;15.60;90.70;;;;;;5034293;28;20044;-72
2023/05/20 04:42:46;;;;;;;11.45;4.47;;;15.60;90.80;;;;;;5033853;28;20104;-69
2023/05/20 04:45:12;;;;;;;5.63;3.70;;;15.50;90.80;;;;;;5033413;28;20471;-72
2023/05/20 04:47:38;;;;;;;10.40;4.43;;;15.50;90.90;;;;;;5033220;28;20116;-74
2023/05/20 04:50:12;;;;;;;8.30;4.07;;;15.50;90.90;;;;;;5033030;28;20013;-74
2023/05/20 04:52:38;;;;;;;9.93;4.43;;;15.50;91.30;;;;;;5033054;28;20018;-73
2023/05/20 04:55:11;;;;;;;9.27;4.60;;;15.60;90.90;;;;;;5033136;28;20075;-75
2023/05/20 04:57:40;;;;;;;10.45;4.93;;;15.60;90.90;;;;;;5033050;28;20041;-71
2023/05/20 05:00:07;;;;;;;11.38;4.70;;;15.70;90.80;;;;;;5033060;28;20056;-73
2023/05/20 05:02:33;;;;;;;10.52;4.65;;;15.60;90.90;;;;;;5032856;28;20071;-71
2023/05/20 05:04:59;;;;;;;9.02;4.30;;;15.60;91.10;;;;;;5032816;28;20026;-68
2023/05/20 05:07:25;;;;;;;6.93;4.03;;;15.60;91.00;;;;;;5032849;28;20044;-74
2023/05/20 05:09:50;;;;;;;6.40;3.92;;;15.60;91.20;;;;;;5032624;28;20028;-73
2023/05/20 05:12:16;;;;;;;10.48;4.18;;;15.50;91.30;;;;;;5032938;28;20030;-73
2023/05/20 05:14:41;;;;;;;9.60;4.53;;;15.50;91.40;;;;;;5032825;28;20446;-73
2023/05/20 05:17:07;;;;;;;10.80;4.70;;;15.60;91.30;;;;;;5032148;28;20033;-68
2023/05/20 05:19:32;;;;;;;11.27;4.60;;;15.60;91.30;;;;;;5036711;28;20494;-70
2023/05/20 05:21:58;;;;;;;14.90;4.88;;;15.60;91.20;;;;;;5036906;28;20032;-75
2023/05/20 05:24:23;;;;;;;7.15;4.10;;;15.70;91.20;;;;;;5036639;28;20382;-71
2023/05/20 05:26:53;;;;;;;10.85;4.72;;;15.60;91.30;;;;;;5036456;28;20037;-71
2023/05/20 05:29:18;;;;;;;8.25;4.70;;;15.60;91.40;;;;;;5036768;28;20513;-70
2023/05/20 05:31:44;;;;;;;8.25;4.78;;;15.70;91.40;;;;;;5037040;28;20029;-68
2023/05/20 05:34:10;;;;;;;11.95;5.07;;;15.70;91.20;;;;;;5036725;28;20024;-70
2023/05/20 05:36:37;;;;;;;10.68;4.93;;;15.80;91.20;;;;;;5036661;28;20132;-70
2023/05/20 05:39:03;;;;;;;8.18;4.38;;;15.80;91.30;;;;;;5036416;28;20017;-71
2023/05/20 05:41:29;;;;;;;9.45;4.32;;;15.80;91.40;;;;;;5036535;28;20123;-76
2023/05/20 05:43:54;;;;;;;10.07;4.28;;;15.80;91.50;;;;;;5036528;28;20100;-71
2023/05/20 05:46:20;;;;;;;12.95;4.10;;;15.90;91.50;;;;;;5036295;28;20042;-68
2023/05/20 05:48:48;;;;;;;8.68;4.43;;;16.00;91.20;;;;;;5036344;28;20425;-71
2023/05/20 05:51:14;;;;;;;7.38;4.22;;;16.10;91.30;;;;;;5036272;28;20064;-69
2023/05/20 05:53:39;;;;;;;8.38;5.13;;;16.10;91.60;;;;;;5036129;28;20421;-71
2023/05/20 05:56:05;;;;;;;10.27;4.47;;;16.20;91.50;;;;;;5036930;28;20483;-75
2023/05/20 05:58:31;;;;;;;9.02;4.55;;;16.30;91.30;;;;;;5045013;28;20490;-74
2023/05/20 06:00:57;;;;;;;8.70;4.55;;;16.40;91.20;;;;;;5054585;28;20025;-70
2023/05/20 06:03:23;;;;;;;8.13;3.83;;;16.40;91.00;;;;;;5053445;28;20521;-69
2023/05/20 06:05:48;;;;;;;11.07;4.50;;;16.50;90.70;;;;;;5054950;28;20017;-73
2023/05/20 06:08:15;;;;;;;7.18;3.97;;;16.50;90.50;;;;;;5055770;28;20009;-75
2023/05/20 06:10:41;;;;;;;9.13;4.07;;;16.60;90.50;;;;;;5056266;28;20117;-70
2023/05/20 06:13:06;;;;;;;8.57;4.65;;;16.70;90.30;;;;;;5055803;28;20027;-73
2023/05/20 06:15:32;;;;;;;11.80;4.47;;;16.80;90.00;;;;;;5055999;28;20029;-68
2023/05/20 06:17:57;;;;;;;9.23;4.65;;;16.90;89.90;;;;;;5055708;28;20398;-69
2023/05/20 06:20:23;;;;;;;12.20;4.68;;;17.00;89.60;;;;;;5055831;28;20052;-68
2023/05/20 06:22:49;;;;;;;8.55;3.88;;;17.00;89.60;;;;;;5055557;28;20079;-68
2023/05/20 06:25:15;;;;;;;6.75;4.00;;;17.10;90.00;;;;;;5054180;28;20094;-75
2023/05/20 06:27:40;;;;;;;6.15;3.50;;;17.10;89.60;;;;;;5055446;28;20048;-71
2023/05/20 06:30:06;;;;;;;6.32;3.60;;;17.20;89.70;;;;;;5055443;28;20017;-72
2023/05/20 06:32:32;;;;;;;7.43;3.78;;;17.20;88.90;;;;;;5055316;28;20029;-74
2023/05/20 06:34:58;;;;;;;7.50;3.75;;;17.30;88.90;;;;;;5054952;28;20073;-73
2023/05/20 06:37:23;;;;;;;7.82;4.95;;;17.40;88.80;;;;;;5055244;28;20466;-66
2023/05/20 06:39:52;;;;;;;11.75;4.55;;;17.50;87.80;;;;;;5055580;28;20021;-74
2023/05/20 06:42:21;;;;;;;7.85;4.80;;;17.40;88.00;;;;;;5055426;28;20378;-67
2023/05/20 06:44:46;;;;;;;7.78;4.60;;;17.40;88.00;;;;;;5055422;28;20021;-69
2023/05/20 06:47:16;;;;;;;10.90;5.18;;;17.40;88.00;;;;;;5055091;28;20047;-68
2023/05/20 06:49:42;;;;;;;8.07;4.55;;;17.40;88.10;;;;;;5055052;28;20049;-65
2023/05/20 06:52:08;;;;;;;7.93;4.80;;;17.40;88.00;;;;;;5055121;28;20455;-70
2023/05/20 06:54:38;;;;;;;6.88;4.60;;;17.40;88.00;;;;;;5055034;28;20028;-71
2023/05/20 06:57:05;;;;;;;6.18;4.15;;;17.50;88.10;;;;;;5055140;28;20040;-68
2023/05/20 06:59:31;;;;;;;9.00;4.85;;;17.50;87.90;;;;;;5055008;28;20071;-67
2023/05/20 07:01:56;;;;;;;8.02;4.03;;;17.50;88.00;;;;;;5055107;28;20029;-68
2023/05/20 07:04:22;;;;;;;8.90;4.88;;;17.60;88.30;;;;;;5055048;28;20021;-69
2023/05/20 07:06:47;;;;;;;8.93;5.07;;;17.60;87.80;;;;;;5054586;28;20475;-65
2023/05/20 07:09:13;;;;;;;7.30;4.60;;;17.70;87.90;;;;;;5054681;28;20025;-68
2023/05/20 07:11:39;;;;;;;9.75;4.63;;;17.70;87.70;;;;;;5054998;28;20071;-67
2023/05/20 07:14:05;;;;;;;7.80;5.07;;;17.80;87.70;;;;;;5054130;28;20057;-66
2023/05/20 07:16:31;;;;;;;7.95;4.75;;;17.80;87.40;;;;;;5054711;28;20017;-66
2023/05/20 07:18:57;;;;;;;7.25;4.65;;;17.80;87.50;;;;;;5054618;28;20108;-68
2023/05/20 07:21:22;;;;;;;6.70;4.40;;;17.80;87.80;;;;;;5054189;28;20450;-71
2023/05/20 07:23:48;;;;;;;9.48;5.82;;;17.90;88.20;;;;;;5054551;28;20021;-63
2023/05/20 07:26:13;;;;;;;7.13;4.45;;;17.90;88.20;;;;;;5054253;28;20025;-64
2023/05/20 07:28:39;;;;;;;8.50;4.60;;;18.00;88.50;;;;;;5054303;28;20032;-64
2023/05/20 07:31:05;;;;;;;9.63;4.82;;;18.00;88.40;;;;;;5054528;28;20029;-65
2023/05/20 07:33:30;;;;;;;7.28;4.85;;;18.10;88.30;;;;;;5052602;28;20100;-71
2023/05/20 07:35:56;;;;;;;15.70;5.03;;;18.10;88.00;;;;;;5053285;28;20033;-64
2023/05/20 07:38:22;;;;;;;7.63;4.38;;;18.20;88.70;;;;;;5054385;28;20054;-72
2023/05/20 07:40:47;;;;;;;4.57;3.33;;;18.30;88.00;;;;;;5053771;28;20035;-74
2023/05/20 07:43:13;;;;;;;5.50;3.20;;;18.50;87.10;;;;;;5054477;28;20017;-68
2023/05/20 07:45:39;;;;;;;7.65;3.55;;;18.50;87.20;;;;;;5054320;28;20398;-67
2023/05/20 07:48:07;;;;;;;6.53;3.25;;;18.60;86.80;;;;;;5054340;28;20037;-66
2023/05/20 07:50:33;;;;;;;5.35;3.53;;;18.60;87.10;;;;;;5053733;28;20051;-66
2023/05/20 07:52:59;;;;;;;3.50;2.22;;;18.70;86.00;;;;;;5054080;28;20447;-65
2023/05/20 07:55:24;;;;;;;7.05;3.17;;;18.70;86.30;;;;;;5053982;28;20517;-68
2023/05/20 07:57:50;;;;;;;6.10;3.22;;;18.80;85.70;;;;;;5053867;28;20390;-70
2023/05/20 08:00:16;;;;;;;6.38;3.53;;;18.90;85.00;;;;;;5053977;28;20025;-70
2023/05/20 08:02:41;;;;;;;6.88;3.10;;;19.00;84.80;;;;;;5053824;28;20079;-68
2023/05/20 08:05:08;;;;;;;4.90;2.65;;;19.00;84.10;;;;;;5043758;28;20070;-66
2023/05/20 08:07:33;;;;;;;4.60;2.30;;;19.10;83.80;;;;;;5042318;28;20044;-67
2023/05/20 08:09:59;;;;;;;5.43;2.55;;;19.10;84.30;;;;;;5034017;28;20029;-69
2023/05/20 08:12:25;;;;;;;4.13;2.30;;;19.10;84.10;;;;;;5051543;28;20024;-65
2023/05/20 08:14:52;;;;;;;5.25;2.65;;;19.10;84.60;;;;;;5053606;28;20104;-74
2023/05/20 08:17:18;;;;;;;5.15;2.25;;;19.20;84.70;;;;;;5032254;28;20045;-71
2023/05/20 08:19:43;;;;;;;4.45;2.17;;;19.30;83.60;;;;;;5039936;28;20449;-74
2023/05/20 08:22:09;;;;;;;4.07;2.35;;;19.30;83.20;;;;;;5039736;28;20025;-71
2023/05/20 08:24:35;;;;;;;6.00;2.20;;;19.40;82.50;;;;;;5041725;28;20044;-71
2023/05/20 08:27:01;;;;;;;6.70;2.70;;;19.30;83.00;;;;;;5046492;28;20438;-67
2023/05/20 08:29:26;;;;;;;6.45;2.85;;;19.40;81.80;;;;;;5039716;28;20029;-70
2023/05/20 08:31:52;;;;;;;6.88;2.50;;;19.60;80.90;;;;;;5042591;28;20491;-67
2023/05/20 08:34:17;;;;;;;4.30;2.38;;;19.50;81.80;;;;;;5036035;28;20028;-71
2023/05/20 08:36:44;;;;;;;3.05;1.83;;;19.50;82.60;;;;;;5035054;28;20108;-71
2023/05/20 08:39:09;;;;;;;3.75;2.65;;;19.50;83.00;;;;;;5045420;28;20021;-73
2023/05/20 08:41:37;;;;;;;2.90;1.88;;;19.60;81.80;;;;;;5037686;28;20493;-70
2023/05/20 08:44:04;;;;;;;4.97;2.53;;;19.70;81.70;;;;;;5038662;28;20017;-67
2023/05/20 08:46:33;;;;;;;4.55;2.58;;;19.80;80.40;;;;;;5052017;28;20037;-69
2023/05/20 08:48:58;;;;;;;3.75;2.50;;;19.90;79.70;;;;;;5047402;28;20059;-74
2023/05/20 08:51:26;;;;;;;5.82;2.58;;;20.00;80.00;;;;;;5034614;28;20053;-69
2023/05/20 08:53:53;;;;;;;7.18;2.63;;;20.00;80.00;;;;;;5041897;28;20036;-69
2023/05/20 08:56:20;;;;;;;4.97;3.45;;;19.90;80.40;;;;;;5044567;28;20027;-66
2023/05/20 08:58:46;;;;;;;3.40;1.92;;;20.00;79.40;;;;;;5043907;28;20143;-66
2023/05/20 09:01:12;;;;;;;4.32;2.03;;;19.90;80.60;;;;;;5054973;28;20513;-66
2023/05/20 09:03:37;;;;;;;4.93;2.30;;;19.90;79.60;;;;;;5046124;28;20033;-69
2023/05/20 09:06:07;;;;;;;4.50;2.30;;;19.90;80.00;;;;;;5053006;28;20490;-66
2023/05/20 09:08:34;;;;;;;4.25;2.30;;;20.00;80.10;;;;;;5043276;28;20036;-72
2023/05/20 09:11:00;;;;;;;5.15;2.65;;;20.00;78.40;;;;;;5051020;28;20095;-75
2023/05/20 09:13:27;;;;;;;4.72;2.65;;;20.00;79.40;;;;;;5034184;28;20474;-69
2023/05/20 09:15:53;;;;;;;4.90;2.67;;;20.10;78.70;;;;;;5045042;28;20077;-72
2023/05/20 09:18:18;;;;;;;3.85;2.22;;;20.10;77.80;;;;;;5031561;28;20116;-69
2023/05/20 09:20:49;;;;;;;3.95;2.35;;;20.10;77.40;;;;;;5046118;28;20029;-73
2023/05/20 09:23:18;;;;;;;10.43;2.40;;;20.20;78.00;;;;;;5046038;28;20131;-69
2023/05/20 09:25:44;;;;;;;4.35;2.30;;;20.20;76.90;;;;;;5047209;28;20028;-68
2023/05/20 09:28:10;;;;;;;6.57;2.05;;;20.20;77.10;;;;;;5040420;28;20040;-68
2023/05/20 09:30:36;;;;;;;5.97;2.25;;;20.20;77.70;;;;;;5049991;28;20029;-68
2023/05/20 09:33:04;;;;;;;3.42;2.33;;;20.20;77.40;;;;;;5045388;28;20088;-66
2023/05/20 09:35:30;;;;;;;6.20;2.25;;;20.20;78.00;;;;;;5039047;28;20040;-66
2023/05/20 09:37:57;;;;;;;4.55;2.08;;;20.20;76.70;;;;;;5049950;28;20149;-69
2023/05/20 09:40:27;;;;;;;11.02;2.17;;;20.10;77.20;;;;;;5056309;28;20024;-70
2023/05/20 09:43:01;;;;;;;2.60;2.05;;;20.20;75.80;;;;;;5036859;28;20044;-74
2023/05/20 09:45:26;;;;;;;5.90;1.80;;;20.20;75.80;;;;;;5044455;28;20103;-70
2023/05/20 09:47:53;;;;;;;4.72;2.17;;;20.20;75.90;;;;;;5036988;28;20747;-69
2023/05/20 09:50:20;;;;;;;6.18;2.15;;;20.20;75.50;;;;;;5046866;28;20438;-72
2023/05/20 09:52:50;;;;;;;5.13;1.88;;;20.20;76.10;;;;;;5040356;28;20631;-72
2023/05/20 09:55:18;;;;;;;5.88;2.20;;;20.20;76.90;;;;;;5038597;28;20025;-72
2023/05/20 09:57:44;;;;;;;3.65;1.85;;;20.20;76.60;;;;;;5044553;28;20032;-69
2023/05/20 10:00:16;;;;;;;2.90;2.08;;;20.20;77.10;;;;;;5039838;28;20106;-70
2023/05/20 10:02:46;;;;;;;5.57;2.27;;;20.30;75.40;;;;;;5036237;28;20017;-70
2023/05/20 10:05:34;;;;;;;4.20;2.55;;;20.30;75.90;;;;;;5049809;28;20025;-68
2023/05/20 10:08:37;;;;;;;4.32;2.33;;;20.30;75.60;;;;;;5052995;28;20383;-68
2023/05/20 10:11:27;;;;;;;4.38;2.22;;;20.30;76.50;;;;;;5041176;28;20036;-70
2023/05/20 10:14:16;;;;;;;6.20;2.20;;;20.20;75.70;;;;;;5041665;28;20029;-70
2023/05/20 10:17:07;;;;;;;3.22;2.25;;;20.20;75.90;;;;;;5042003;28;20124;-71
2023/05/20 10:19:33;;;;;;;4.82;2.42;;;20.20;76.50;;;;;;5047568;28;20036;-71
2023/05/20 10:22:02;;;;;;;10.63;2.67;;;20.30;77.30;;;;;;5052271;28;20017;-71
2023/05/20 10:24:37;;;;;;;4.35;2.30;;;20.30;77.10;;;;;;5049916;28;20534;-70
2023/05/20 10:27:06;;;;;;;6.50;2.58;;;20.20;76.50;;;;;;5050590;28;20059;-70
2023/05/20 10:29:49;;;;;;;4.32;2.42;;;20.30;77.90;;;;;;5047263;28;20084;-70
2023/05/20 10:32:31;;;;;;;5.38;2.35;;;20.30;75.50;;;;;;5047947;28;20025;-70
2023/05/20 10:35:07;;;;;;;4.20;2.28;;;20.30;75.00;;;;;;5054839;28;20032;-69
2023/05/20 10:37:41;;;;;;;4.03;1.90;;;20.30;75.30;;;;;;5046680;28;20378;-70
2023/05/20 10:40:10;;;;;;;3.60;2.50;;;20.30;75.50;;;;;;5047077;28;20024;-70
2023/05/20 10:42:36;;;;;;;3.70;2.05;;;20.30;74.30;;;;;;5047302;28;20044;-70
2023/05/20 10:45:02;;;;;;;2.80;1.75;;;20.30;74.50;;;;;;5051461;28;20486;-70
2023/05/20 10:47:28;;;;;;;1.98;1.75;;;20.30;74.90;;;;;;5049670;28;20032;-71
2023/05/20 10:49:54;;;;;;;5.22;2.53;;;20.30;75.50;;;;;;5043320;28;20098;-69
2023/05/20 10:52:20;;;;;;;4.43;2.03;;;20.30;74.30;;;;;;5061130;28;20424;-71
2023/05/20 10:54:59;;;;;;;4.97;2.30;;;20.30;74.40;;;;;;5052125;28;20032;-70
2023/05/20 10:57:26;;;;;;;5.72;2.38;;;20.30;75.10;;;;;;5035289;28;20099;-68
2023/05/20 10:59:53;;;;;;;4.78;1.80;;;20.30;74.90;;;;;;5039645;28;20060;-70
2023/05/20 11:02:25;;;;;;;4.97;1.90;;;20.30;74.30;;;;;;5050720;28;20043;-69
2023/05/20 11:04:51;;;;;;;;;;;20.40;74.60;;;;;;5043696;28;20013;-69
2023/05/20 11:07:27;;;;;;;3.25;1.70;;;20.30;74.30;;;;;;5047420;28;19916;-70
2023/05/20 11:09:55;;;;;;;3.92;2.15;;;20.40;74.60;;;;;;5053843;28;20066;-71
2023/05/20 11:12:22;;;;;;;3.42;2.22;;;20.30;74.80;;;;;;5046120;28;20021;-69
2023/05/20 11:14:48;;;;;;;2.60;1.92;;;20.40;75.80;;;;;;5039686;28;20074;-69
2023/05/20 11:17:15;;;;;;;3.63;2.03;;;20.40;75.10;;;;;;5045026;28;20047;-68
2023/05/20 11:19:40;;;;;;;3.47;2.13;;;20.40;75.30;;;;;;5038575;28;20066;-71
2023/05/20 11:22:07;;;;;;;2.83;1.92;;;20.50;74.00;;;;;;5037131;28;20032;-71
2023/05/20 11:24:32;;;;;;;2.30;1.60;;;20.40;74.60;;;;;;5045852;28;20036;-69
2023/05/20 11:27:00;;;;;;;4.15;2.05;;;20.50;75.20;;;;;;5035824;28;20041;-70
2023/05/20 11:29:27;;;;;;;5.00;1.77;;;20.40;73.50;;;;;;5036552;28;20029;-70
2023/05/20 11:31:54;;;;;;;3.63;1.83;;;20.50;73.40;;;;;;5043288;28;20104;-71
2023/05/20 11:34:21;;;;;;;3.58;1.75;;;20.50;73.90;;;;;;5039726;28;20017;-70
2023/05/20 11:36:49;;;;;;;5.60;1.60;;;20.50;74.20;;;;;;5034928;28;20070;-68
2023/05/20 11:39:15;;;;;;;3.65;2.10;;;20.50;74.60;;;;;;5044030;28;20082;-73
2023/05/20 11:41:41;;;;;;;5.38;2.00;;;20.50;74.10;;;;;;5047204;28;20057;-69
2023/05/20 11:44:12;;;;;;;3.17;2.22;;;20.50;74.40;;;;;;5048904;28;20045;-70
2023/05/20 11:46:43;;;;;;;3.20;1.60;;;20.50;74.80;;;;;;5039348;28;20044;-70
2023/05/20 11:49:13;;;;;;;5.25;1.80;;;20.50;74.40;;;;;;5037883;28;20104;-74
2023/05/20 11:51:39;;;;;;;4.43;2.10;;;20.60;74.40;;;;;;5042938;28;20527;-70
2023/05/20 11:54:06;;;;;;;5.20;2.30;;;20.60;74.50;;;;;;5051076;28;20425;-71
2023/05/20 11:56:41;;;;;;;5.97;1.90;;;20.60;74.70;;;;;;5037518;28;20037;-71
2023/05/20 11:59:09;;;;;;;3.50;1.90;;;20.60;75.20;;;;;;5041193;28;20025;-71
2023/05/20 12:01:36;;;;;;;7.82;2.78;;;20.60;74.80;;;;;;5043493;28;20048;-71
2023/05/20 12:04:04;;;;;;;7.65;2.20;;;20.60;74.70;;;;;;5041248;28;20032;-72
2023/05/20 12:06:30;;;;;;;3.17;2.00;;;20.60;74.50;;;;;;5049421;28;20063;-71
2023/05/20 12:08:58;;;;;;;2.38;1.83;;;20.60;75.60;;;;;;5040142;28;20017;-74
2023/05/20 12:11:24;;;;;;;4.13;2.03;;;20.60;74.70;;;;;;5048956;28;20462;-70
2023/05/20 12:13:50;;;;;;;2.70;1.90;;;20.60;74.70;;;;;;5038950;28;20029;-70
2023/05/20 12:16:16;;;;;;;4.05;2.10;;;20.50;75.30;;;;;;5046559;28;20086;-69
2023/05/20 12:18:41;;;;;;;2.88;1.60;;;20.60;75.20;;;;;;5045734;28;20036;-73
2023/05/20 12:21:07;;;;;;;4.03;2.00;;;20.60;75.50;;;;;;5040581;28;20540;-68
2023/05/20 12:23:33;;;;;;;5.13;1.92;;;20.60;76.00;;;;;;5037022;28;20474;-70
2023/05/20 12:25:59;;;;;;;5.80;2.35;;;20.70;75.70;;;;;;5040624;28;20017;-69
2023/05/20 12:28:25;;;;;;;3.47;2.10;;;20.70;75.10;;;;;;5035312;28;20037;-70
2023/05/20 12:30:51;;;;;;;5.28;2.30;;;20.70;74.90;;;;;;5043740;28;20863;-72
2023/05/20 12:33:16;;;;;;;3.65;2.40;;;20.60;75.50;;;;;;5044959;28;20021;-72
2023/05/20 12:35:43;;;;;;;4.03;1.88;;;20.70;75.80;;;;;;5051070;28;20425;-70
2023/05/20 12:38:09;;;;;;;5.10;2.25;;;20.70;75.40;;;;;;5040733;28;20013;-68
2023/05/20 12:40:35;;;;;;;4.40;2.25;;;20.70;75.50;;;;;;5035805;28;20116;-72
2023/05/20 12:43:02;;;;;;;4.22;2.08;;;20.70;75.50;;;;;;5039976;28;20012;-74
2023/05/20 12:45:28;;;;;;;6.95;1.88;;;20.70;75.60;;;;;;5041267;28;20033;-72